Weather at Deer Lake Airport

Public forecast

Using degrees Celsius for public forecast. Weather courtesy of forecast.io.

Current aviation weather report (METAR) for Deer Lake Airport

Retrieved 2020/11/23 18:00 UTC (36 minutes ago):

CYDF 231800Z 18009KT 15SM FEW030 BKN090 BKN130 BKN200 00/M08 A3041 RMK SF2AC3AC1CI1 SLP302

Aviation forecast (TAF) for Deer Lake Airport

Retrieved 2020/11/23 14:42 UTC (4 hours ago):

TAF CYDF 231338Z 2314/2402 18010KT P6SM OVC030 TEMPO 2314/2316 OVC020 FM232100 14008KT P6SM BKN030 TEMPO 2321/2324 BKN020 FM240000 14012KT P6SM OVC030 TEMPO 2400/2402 6SM -SHRA BR OVC020 RMK NXT FCST BY 232000Z